createdAt,value
2022-12-06T00:00:19.614Z,97409.34
2022-12-06T00:03:21.191Z,97408.28
2022-12-06T00:06:25.377Z,97415.63
2022-12-06T00:09:31.549Z,97414.81
2022-12-06T00:12:33.162Z,97415.50
2022-12-06T00:15:36.475Z,97414.06
2022-12-06T00:18:39.673Z,97408.75
2022-12-06T00:21:42.068Z,97403.88
2022-12-06T00:24:43.591Z,97405.91
2022-12-06T00:27:45.096Z,97398.06
2022-12-06T00:30:46.636Z,97399.94
2022-12-06T00:33:48.896Z,97394.47
2022-12-06T00:36:50.430Z,97393.78
2022-12-06T00:39:52.005Z,97389.00
2022-12-06T00:42:54.019Z,97391.59
2022-12-06T00:45:55.913Z,97377.16
2022-12-06T00:48:59.091Z,97384.47
2022-12-06T00:52:00.805Z,97384.72
2022-12-06T00:55:02.299Z,97391.94
2022-12-06T00:58:03.930Z,97386.25
2022-12-06T01:01:17.690Z,97390.13
2022-12-06T01:04:19.301Z,97392.13
2022-12-06T01:07:20.972Z,97374.94
2022-12-06T01:10:22.576Z,97383.72
2022-12-06T01:13:24.224Z,97381.56
2022-12-06T01:16:28.714Z,97379.41
2022-12-06T01:19:30.228Z,97383.63
2022-12-06T01:22:31.919Z,97378.84
2022-12-06T01:25:36.174Z,97384.16
2022-12-06T01:28:38.155Z,97385.84
2022-12-06T01:31:39.755Z,97388.44
2022-12-06T01:34:41.577Z,97383.13
2022-12-06T01:37:43.136Z,97377.44
2022-12-06T01:40:47.003Z,97384.41
2022-12-06T01:43:49.194Z,97366.50
2022-12-06T01:46:51.236Z,97378.00
2022-12-06T01:50:00.555Z,97378.09
2022-12-06T01:53:08.708Z,97375.69
2022-12-06T01:56:10.705Z,97376.56
2022-12-06T01:59:13.519Z,97372.88
2022-12-06T02:02:15.235Z,97369.84
2022-12-06T02:05:17.577Z,97369.63
2022-12-06T02:08:21.666Z,97365.59
2022-12-06T02:11:23.146Z,97365.09
2022-12-06T02:14:29.683Z,97351.72
2022-12-06T02:17:50.047Z,97353.78
2022-12-06T02:21:02.668Z,97349.66
2022-12-06T02:24:36.408Z,97349.13
2022-12-06T02:27:55.115Z,97350.94
2022-12-06T02:31:19.067Z,97351.06
2022-12-06T02:34:43.195Z,97347.88
2022-12-06T02:37:53.483Z,97348.28
2022-12-06T02:41:02.750Z,97342.47
2022-12-06T02:44:08.349Z,97348.78
2022-12-06T02:47:13.070Z,97344.38
2022-12-06T02:50:19.388Z,97341.78
2022-12-06T02:53:24.201Z,97341.19
2022-12-06T02:56:26.317Z,97347.19
2022-12-06T02:59:27.943Z,97351.28
2022-12-06T03:02:31.996Z,97356.47
2022-12-06T03:05:35.955Z,97353.47
2022-12-06T03:09:06.208Z,97351.44
2022-12-06T03:12:16.510Z,97350.50
2022-12-06T03:15:36.526Z,97346.03
2022-12-06T03:18:50.373Z,97336.72
2022-12-06T03:21:51.917Z,97338.34
2022-12-06T03:24:54.247Z,97340.38
2022-12-06T03:27:58.734Z,97332.75
2022-12-06T03:31:04.391Z,97338.53
2022-12-06T03:34:32.169Z,97332.66
2022-12-06T03:37:37.905Z,97334.56
2022-12-06T03:40:42.800Z,97334.66
2022-12-06T03:43:44.792Z,97336.09
2022-12-06T03:46:50.527Z,97334.44
2022-12-06T03:50:07.522Z,97335.63
2022-12-06T03:53:09.352Z,97332.06
2022-12-06T03:56:10.965Z,97328.06
2022-12-06T03:59:12.570Z,97327.47
2022-12-06T04:02:14.191Z,97320.47
2022-12-06T04:05:15.785Z,97323.66
2022-12-06T04:08:17.333Z,97325.56
2022-12-06T04:11:19.271Z,97323.19
2022-12-06T04:14:20.834Z,97323.09
2022-12-06T04:17:40.759Z,97315.25
2022-12-06T04:21:13.971Z,97312.78
2022-12-06T04:24:15.490Z,97308.50
2022-12-06T04:27:35.626Z,97305.44
2022-12-06T04:30:55.576Z,97302.56
2022-12-06T04:34:15.814Z,97300.44
2022-12-06T04:37:35.761Z,97294.50
2022-12-06T04:40:37.283Z,97300.19
2022-12-06T04:43:44.656Z,97297.34
2022-12-06T04:46:46.486Z,97300.09
2022-12-06T04:49:48.178Z,97303.88
2022-12-06T04:52:49.736Z,97303.75
2022-12-06T04:55:51.939Z,97293.00
2022-12-06T04:58:53.475Z,97294.00
2022-12-06T05:01:55.998Z,97288.44
2022-12-06T05:04:57.581Z,97282.41
2022-12-06T05:07:59.154Z,97287.38
2022-12-06T05:11:01.229Z,97281.34
2022-12-06T05:14:02.806Z,97297.09
2022-12-06T05:17:04.398Z,97287.88
2022-12-06T05:20:06.901Z,97280.88
2022-12-06T05:23:08.391Z,97293.56
2022-12-06T05:26:20.350Z,97301.97
2022-12-06T05:29:21.938Z,97291.53
2022-12-06T05:32:23.498Z,97290.91
2022-12-06T05:35:25.082Z,97292.69
2022-12-06T05:38:26.680Z,97289.00
2022-12-06T05:41:28.280Z,97289.97
2022-12-06T05:44:29.819Z,97291.50
2022-12-06T05:47:31.351Z,97287.09
2022-12-06T05:50:33.149Z,97285.06
2022-12-06T05:53:34.746Z,97287.44
2022-12-06T05:56:36.342Z,97279.50
2022-12-06T05:59:37.923Z,97272.88
2022-12-06T06:02:39.499Z,97276.44
2022-12-06T06:05:50.141Z,97272.63
2022-12-06T06:08:52.718Z,97274.03
2022-12-06T06:11:55.945Z,97278.31
2022-12-06T06:14:57.530Z,97275.13
2022-12-06T06:17:59.058Z,97268.81
2022-12-06T06:21:01.147Z,97270.59
2022-12-06T06:24:02.969Z,97272.16
2022-12-06T06:27:05.142Z,97268.44
2022-12-06T06:30:09.542Z,97269.66
2022-12-06T06:33:11.179Z,97264.44
2022-12-06T06:36:13.058Z,97262.13
2022-12-06T06:39:14.713Z,97267.81
2022-12-06T06:42:17.519Z,97258.78
2022-12-06T06:45:22.568Z,97255.00
2022-12-06T06:48:29.527Z,97260.63
2022-12-06T06:51:31.771Z,97257.78
2022-12-06T06:54:33.311Z,97258.59
2022-12-06T06:57:36.106Z,97251.19
2022-12-06T07:00:37.719Z,97253.78
2022-12-06T07:03:39.278Z,97258.88
2022-12-06T07:06:41.043Z,97260.41
2022-12-06T07:09:42.792Z,97269.03
2022-12-06T07:12:44.454Z,97262.88
2022-12-06T07:15:46.180Z,97270.25
2022-12-06T07:18:48.105Z,97261.38
2022-12-06T07:21:49.812Z,97265.38
2022-12-06T07:24:52.639Z,97262.25
2022-12-06T07:27:54.430Z,97271.13
2022-12-06T07:30:57.126Z,97276.78
2022-12-06T07:34:00.912Z,97273.09
2022-12-06T07:37:05.084Z,97278.63
2022-12-06T07:40:08.103Z,97274.94
2022-12-06T07:43:29.023Z,97271.09
2022-12-06T07:46:30.883Z,97280.94
2022-12-06T07:49:32.571Z,97284.81
2022-12-06T07:52:35.892Z,97288.81
2022-12-06T07:55:37.492Z,97287.72
2022-12-06T07:58:38.967Z,97288.88
2022-12-06T08:01:40.621Z,97286.56
2022-12-06T08:04:42.304Z,97284.78
2022-12-06T08:07:44.805Z,97302.56
2022-12-06T08:10:46.412Z,97296.00
2022-12-06T08:13:48.593Z,97295.47
2022-12-06T08:16:50.495Z,97303.47
2022-12-06T08:19:52.335Z,97301.03
2022-12-06T08:22:53.826Z,97307.53
2022-12-06T08:26:07.071Z,97304.38
2022-12-06T08:29:08.739Z,97298.63
2022-12-06T08:32:10.243Z,97303.88
2022-12-06T08:35:11.937Z,97307.88
2022-12-06T08:38:13.543Z,97310.78
2022-12-06T08:41:33.864Z,97310.25
2022-12-06T08:44:36.382Z,97301.19
2022-12-06T08:47:38.002Z,97314.16
2022-12-06T08:50:39.631Z,97309.75
2022-12-06T08:53:41.219Z,97301.50
2022-12-06T08:56:43.118Z,97311.59
2022-12-06T08:59:44.633Z,97317.50
2022-12-06T09:02:46.218Z,97322.78
2022-12-06T09:05:47.901Z,97313.81
2022-12-06T09:08:49.988Z,97299.88
2022-12-06T09:11:51.559Z,97312.00
2022-12-06T09:14:53.039Z,97314.13
2022-12-06T09:17:54.512Z,97305.31
2022-12-06T09:20:56.035Z,97303.81
2022-12-06T09:23:58.111Z,97306.31
2022-12-06T09:26:59.645Z,97311.03
2022-12-06T09:30:01.779Z,97288.56
2022-12-06T09:33:03.643Z,97305.94
2022-12-06T09:36:24.194Z,97306.19
2022-12-06T09:39:32.322Z,97291.16
2022-12-06T09:43:01.882Z,97305.91
2022-12-06T09:46:30.776Z,97304.63
2022-12-06T09:49:45.013Z,97308.63
2022-12-06T09:53:17.380Z,97301.03
2022-12-06T09:56:23.140Z,97299.66
2022-12-06T09:59:54.954Z,97297.88
2022-12-06T10:03:33.844Z,97299.53
2022-12-06T10:07:12.282Z,97294.56
2022-12-06T10:10:21.321Z,97288.78
2022-12-06T10:13:50.551Z,97293.16
2022-12-06T10:17:21.057Z,97293.44
2022-12-06T10:20:35.369Z,97284.06
2022-12-06T10:24:18.272Z,97282.09
2022-12-06T10:27:34.585Z,97269.25
2022-12-06T10:30:50.681Z,97276.72
2022-12-06T10:34:03.544Z,97267.97
2022-12-06T10:37:43.435Z,97262.28
2022-12-06T10:41:08.040Z,97265.03
2022-12-06T10:44:20.084Z,97261.38
2022-12-06T10:47:28.454Z,97264.22
2022-12-06T10:50:33.760Z,97255.53
2022-12-06T10:53:43.991Z,97258.94
2022-12-06T10:56:49.884Z,97256.00
2022-12-06T11:00:03.641Z,97253.63
2022-12-06T11:03:14.227Z,97257.47
2022-12-06T11:06:25.870Z,97258.81
2022-12-06T11:09:30.027Z,97257.69
2022-12-06T11:12:31.886Z,97257.47
2022-12-06T11:15:36.583Z,97250.22
2022-12-06T11:18:39.929Z,97258.97
2022-12-06T11:21:52.328Z,97244.78
2022-12-06T11:25:06.498Z,97248.56
2022-12-06T11:28:21.454Z,97247.41
2022-12-06T11:31:28.230Z,97242.53
2022-12-06T11:34:57.059Z,97246.06
2022-12-06T11:38:03.322Z,97240.38
2022-12-06T11:41:09.924Z,97241.16
2022-12-06T11:44:20.243Z,97240.81
2022-12-06T11:47:22.800Z,97232.41
2022-12-06T11:50:28.146Z,97237.25
2022-12-06T11:53:35.581Z,97233.94
2022-12-06T11:56:40.426Z,97233.03
2022-12-06T12:00:07.858Z,97235.06
2022-12-06T12:03:30.676Z,97226.75
2022-12-06T12:06:33.072Z,97230.47
2022-12-06T12:09:56.767Z,97231.66
2022-12-06T12:13:34.854Z,97222.06
2022-12-06T12:16:43.530Z,97214.91
2022-12-06T12:19:50.735Z,97212.69
2022-12-06T12:23:02.178Z,97208.59
2022-12-06T12:26:24.770Z,97217.03
2022-12-06T12:29:26.365Z,97207.16
2022-12-06T12:32:27.860Z,97215.47
2022-12-06T12:35:29.378Z,97210.91
2022-12-06T12:38:39.067Z,97210.22
2022-12-06T12:41:43.488Z,97213.47
2022-12-06T12:44:46.258Z,97218.03
2022-12-06T12:48:03.001Z,97220.72
2022-12-06T12:51:07.353Z,97222.81
2022-12-06T12:54:25.911Z,97217.13
2022-12-06T12:57:27.551Z,97216.53
2022-12-06T13:00:34.999Z,97219.25
2022-12-06T13:03:51.036Z,97213.91
2022-12-06T13:07:04.150Z,97220.50
2022-12-06T13:10:23.640Z,97221.81
2022-12-06T13:13:37.413Z,97221.88
2022-12-06T13:16:39.084Z,97218.94
2022-12-06T13:19:53.090Z,97204.91
2022-12-06T13:23:21.339Z,97220.94
2022-12-06T13:26:28.440Z,97217.41
2022-12-06T13:29:36.979Z,97210.19
2022-12-06T13:32:43.132Z,97201.13
2022-12-06T13:36:07.360Z,97214.50
2022-12-06T13:39:38.706Z,97210.28
2022-12-06T13:42:45.360Z,97217.97
2022-12-06T13:45:48.496Z,97223.28
2022-12-06T13:48:53.016Z,97227.16
2022-12-06T13:51:54.559Z,97217.19
2022-12-06T13:54:56.219Z,97222.22
2022-12-06T13:57:57.844Z,97227.56
2022-12-06T14:00:59.482Z,97222.69
2022-12-06T14:04:04.426Z,97217.66
2022-12-06T14:10:15.205Z,97219.22
2022-12-06T14:13:19.393Z,97220.50
2022-12-06T14:16:28.163Z,97214.09
2022-12-06T14:19:40.645Z,97216.97
2022-12-06T14:22:47.193Z,97223.19
2022-12-06T14:25:48.854Z,97214.84
2022-12-06T14:28:51.902Z,97230.41
2022-12-06T14:31:53.436Z,97222.13
2022-12-06T14:35:04.658Z,97226.75
2022-12-06T14:38:27.416Z,97223.41
2022-12-06T14:41:54.085Z,97219.09
2022-12-06T14:45:01.727Z,97229.03
2022-12-06T14:48:04.522Z,97234.63
2022-12-06T14:51:06.102Z,97230.47
2022-12-06T14:54:36.419Z,97223.28
2022-12-06T14:57:45.824Z,97233.06
2022-12-06T15:01:04.585Z,97226.97
2022-12-06T15:04:09.327Z,97223.81
2022-12-06T15:07:37.769Z,97225.19
2022-12-06T15:10:42.933Z,97217.16
2022-12-06T15:14:22.897Z,97220.56
2022-12-06T15:17:24.763Z,97213.31
2022-12-06T15:20:26.324Z,97218.03
2022-12-06T15:23:36.085Z,97221.53
2022-12-06T15:26:37.629Z,97218.13
2022-12-06T15:29:39.522Z,97226.81
2022-12-06T15:32:41.150Z,97230.13
2022-12-06T15:35:42.890Z,97225.69
2022-12-06T15:38:45.008Z,97225.00
2022-12-06T15:41:46.848Z,97222.63
2022-12-06T15:44:50.180Z,97225.78
2022-12-06T15:47:54.037Z,97221.81
2022-12-06T15:50:56.643Z,97221.38
2022-12-06T15:53:58.786Z,97219.31
2022-12-06T15:57:00.327Z,97221.94
2022-12-06T16:00:02.253Z,97215.16
2022-12-06T16:03:08.109Z,97218.09
2022-12-06T16:06:14.703Z,97217.81
2022-12-06T16:09:18.820Z,97220.44
2022-12-06T16:12:20.295Z,97222.25
2022-12-06T16:15:21.799Z,97210.38
2022-12-06T16:18:23.377Z,97214.94
2022-12-06T16:21:27.836Z,97207.75
2022-12-06T16:24:29.898Z,97216.72
2022-12-06T16:27:31.425Z,97215.09
2022-12-06T16:30:59.354Z,97216.59
2022-12-06T16:34:01.184Z,97215.22
2022-12-06T16:37:06.422Z,97214.13
2022-12-06T16:40:18.990Z,97207.53
2022-12-06T16:43:20.611Z,97211.81
2022-12-06T16:46:24.988Z,97202.88
2022-12-06T16:49:46.689Z,97206.19
2022-12-06T16:52:48.938Z,97215.69
2022-12-06T16:55:50.497Z,97210.03
2022-12-06T16:58:52.640Z,97203.69
2022-12-06T17:01:55.146Z,97217.19
2022-12-06T17:04:58.844Z,97211.53
2022-12-06T17:08:00.650Z,97205.91
2022-12-06T17:11:22.219Z,97202.88
2022-12-06T17:14:27.544Z,97209.50
2022-12-06T17:17:29.451Z,97204.78
2022-12-06T17:20:31.048Z,97217.63
2022-12-06T17:23:32.590Z,97221.03
2022-12-06T17:26:34.104Z,97219.81
2022-12-06T17:29:36.614Z,97215.69
2022-12-06T17:32:38.201Z,97225.88
2022-12-06T17:35:39.817Z,97219.13
2022-12-06T17:38:41.326Z,97219.81
2022-12-06T17:42:01.845Z,97218.88
2022-12-06T17:45:04.712Z,97224.38
2022-12-06T17:48:06.512Z,97223.28
2022-12-06T17:51:08.244Z,97229.34
2022-12-06T17:54:10.170Z,97226.84
2022-12-06T17:57:17.109Z,97227.66
2022-12-06T18:00:18.949Z,97232.50
2022-12-06T18:03:20.669Z,97232.38
2022-12-06T18:06:23.957Z,97237.31
2022-12-06T18:09:25.724Z,97235.09
2022-12-06T18:12:31.835Z,97242.81
2022-12-06T18:15:37.856Z,97233.16
2022-12-06T18:18:39.328Z,97236.09
2022-12-06T18:21:41.358Z,97239.53
2022-12-06T18:24:44.648Z,97238.72
2022-12-06T18:27:46.245Z,97244.75
2022-12-06T18:30:47.911Z,97248.19
2022-12-06T18:33:49.476Z,97245.56
2022-12-06T18:36:51.291Z,97250.69
2022-12-06T18:39:52.892Z,97245.56
2022-12-06T18:42:54.804Z,97250.81
2022-12-06T18:46:08.864Z,97250.25
2022-12-06T18:49:11.853Z,97250.81
2022-12-06T18:52:13.542Z,97250.81
2022-12-06T18:55:15.070Z,97252.72
2022-12-06T18:58:16.674Z,97258.94
2022-12-06T19:01:24.515Z,97255.09
2022-12-06T19:04:26.191Z,97254.69
2022-12-06T19:07:28.005Z,97253.56
2022-12-06T19:10:30.019Z,97245.84
2022-12-06T19:13:38.438Z,97252.06
2022-12-06T19:16:56.023Z,97251.06
2022-12-06T19:20:33.686Z,97252.06
2022-12-06T19:27:19.732Z,97254.53
2022-12-06T19:30:22.687Z,97248.91
2022-12-06T19:33:38.680Z,97252.75
2022-12-06T19:36:41.748Z,97253.28
2022-12-06T19:39:44.013Z,97255.38
2022-12-06T19:43:04.219Z,97257.03
2022-12-06T19:46:11.659Z,97259.78
2022-12-06T19:49:14.726Z,97259.34
2022-12-06T19:52:16.632Z,97261.28
2022-12-06T19:55:21.032Z,97261.28
2022-12-06T19:58:24.050Z,97262.94
2022-12-06T20:01:30.174Z,97259.91
2022-12-06T20:04:36.422Z,97258.94
2022-12-06T20:07:38.055Z,97263.06
2022-12-06T20:10:40.237Z,97260.19
2022-12-06T20:13:41.918Z,97258.22
2022-12-06T20:16:44.323Z,97258.53
2022-12-06T20:19:46.466Z,97255.47
2022-12-06T20:22:48.051Z,97248.63
2022-12-06T20:25:50.482Z,97245.16
2022-12-06T20:28:52.106Z,97256.84
2022-12-06T20:31:58.162Z,97254.25
2022-12-06T20:34:59.908Z,97247.50
2022-12-06T20:38:01.924Z,97240.75
2022-12-06T20:41:11.038Z,97258.66
2022-12-06T20:44:12.641Z,97248.19
2022-12-06T20:47:14.258Z,97256.59
2022-12-06T20:50:16.399Z,97257.28
2022-12-06T20:53:17.963Z,97253.69
2022-12-06T20:56:22.003Z,97241.97
2022-12-06T20:59:23.551Z,97244.84
2022-12-06T21:02:25.265Z,97249.69
2022-12-06T21:05:26.791Z,97250.94
2022-12-06T21:08:28.669Z,97243.78
2022-12-06T21:11:30.551Z,97245.28
2022-12-06T21:14:32.127Z,97242.66
2022-12-06T21:17:33.707Z,97246.94
2022-12-06T21:20:39.234Z,97253.28
2022-12-06T21:23:40.845Z,97245.84
2022-12-06T21:26:42.854Z,97253.69
2022-12-06T21:29:45.066Z,97246.66
2022-12-06T21:32:49.074Z,97245.97
2022-12-06T21:35:51.282Z,97251.19
2022-12-06T21:38:53.983Z,97252.88
2022-12-06T21:41:56.186Z,97260.72
2022-12-06T21:44:58.596Z,97254.38
2022-12-06T21:48:00.151Z,97257.38
2022-12-06T21:51:08.239Z,97256.81
2022-12-06T21:54:09.878Z,97245.91
2022-12-06T21:57:11.378Z,97256.66
2022-12-06T22:00:14.921Z,97255.53
2022-12-06T22:03:22.680Z,97260.66
2022-12-06T22:06:26.013Z,97260.47
2022-12-06T22:09:27.579Z,97269.47
2022-12-06T22:12:29.222Z,97269.88
2022-12-06T22:15:32.492Z,97268.06
2022-12-06T22:18:39.843Z,97270.81
2022-12-06T22:21:44.490Z,97273.19
2022-12-06T22:24:46.084Z,97263.28
2022-12-06T22:27:47.542Z,97270.56
2022-12-06T22:30:49.023Z,97271.56
2022-12-06T22:33:52.223Z,97274.16
2022-12-06T22:36:53.771Z,97275.81
2022-12-06T22:39:55.300Z,97261.22
2022-12-06T22:42:56.875Z,97263.81
2022-12-06T22:46:06.875Z,97266.81
2022-12-06T22:49:08.467Z,97261.72
2022-12-06T22:52:10.015Z,97264.63
2022-12-06T22:55:11.588Z,97267.38
2022-12-06T22:58:13.125Z,97267.50
2022-12-06T23:01:17.676Z,97262.41
2022-12-06T23:04:19.321Z,97271.47
2022-12-06T23:07:20.834Z,97264.69
2022-12-06T23:10:22.394Z,97269.41
2022-12-06T23:13:23.956Z,97266.66
2022-12-06T23:16:28.007Z,97277.25
2022-12-06T23:19:29.621Z,97272.94
2022-12-06T23:22:32.260Z,97280.22
2022-12-06T23:25:33.747Z,97271.69
2022-12-06T23:28:35.866Z,97279.78
2022-12-06T23:31:40.012Z,97273.75
2022-12-06T23:34:41.505Z,97276.22
2022-12-06T23:37:43.086Z,97265.94
2022-12-06T23:40:44.603Z,97270.91
2022-12-06T23:43:46.657Z,97275.94
2022-12-06T23:46:48.346Z,97280.78
2022-12-06T23:49:50.106Z,97284.63
2022-12-06T23:52:51.739Z,97286.13
2022-12-06T23:55:53.399Z,97280.03
2022-12-06T23:58:55.408Z,97279.78
